Airport View

Enter AWOS ICAO identifier for current METAR.

ex. KFNL

KPCD 300445Z AUTO 29009KT 10SM SCT046 04/02 A3013 RMK AO2 T00400022

30 Oct 2020 04:51

Frequency: 118.95

Phone: 573-543-5390

Other Area AWOS: KSAR - KFAM - KMDH - KBLV

TAF AMD KCGI 300123Z 3001/3024 33013KT P6SM OVC035 FM300700 33008KT P6SM SCT035 FM301300 VRB03KT P6SM FEW035